createdAt,value
2019-04-29T00:01:55.450Z,5.48
2019-04-29T00:07:03.045Z,6.46
2019-04-29T00:12:10.677Z,6.34
2019-04-29T00:17:18.282Z,6.50
2019-04-29T00:22:25.963Z,6.25
2019-04-29T00:27:33.566Z,6.95
2019-04-29T00:32:41.236Z,6.72
2019-04-29T00:37:48.866Z,6.79
2019-04-29T00:42:56.542Z,7.54
2019-04-29T00:48:04.156Z,7.15
2019-04-29T00:53:11.793Z,7.66
2019-04-29T00:58:19.392Z,8.07
2019-04-29T01:03:27.006Z,7.51
2019-04-29T01:08:34.609Z,7.65
2019-04-29T01:13:42.290Z,7.39
2019-04-29T01:18:49.912Z,7.94
2019-04-29T01:23:57.551Z,7.33
2019-04-29T01:29:05.156Z,7.59
2019-04-29T01:34:12.805Z,7.69
2019-04-29T01:39:20.407Z,7.62
2019-04-29T01:44:28.141Z,9.18
2019-04-29T01:49:35.721Z,9.67
2019-04-29T01:54:43.390Z,9.24
2019-04-29T01:59:51.005Z,8.42
2019-04-29T02:04:58.664Z,9.51
2019-04-29T02:10:06.304Z,11.55
2019-04-29T02:15:14.000Z,10.98
2019-04-29T02:20:21.592Z,10.76
2019-04-29T02:25:29.241Z,12.30
2019-04-29T02:30:36.818Z,12.82
2019-04-29T02:35:44.466Z,14.39
2019-04-29T02:40:52.095Z,13.31
2019-04-29T02:45:59.715Z,13.87
2019-04-29T02:51:07.316Z,13.95
2019-04-29T02:56:15.052Z,13.38
2019-04-29T03:01:22.647Z,13.13
2019-04-29T03:06:30.274Z,13.53
2019-04-29T03:11:37.879Z,13.82
2019-04-29T03:16:45.575Z,13.48
2019-04-29T03:21:53.197Z,13.84
2019-04-29T03:27:00.890Z,14.19
2019-04-29T03:32:08.502Z,13.73
2019-04-29T03:37:16.185Z,13.63
2019-04-29T03:42:23.805Z,13.46
2019-04-29T03:47:31.480Z,13.52
2019-04-29T03:52:39.109Z,15.92
2019-04-29T03:57:46.725Z,12.98
2019-04-29T04:02:54.307Z,13.62
2019-04-29T04:08:01.959Z,13.65
2019-04-29T04:13:09.552Z,13.56
2019-04-29T04:18:17.229Z,14.27
2019-04-29T04:23:24.852Z,15.05
2019-04-29T04:28:32.528Z,17.92
2019-04-29T04:33:40.153Z,15.39
2019-04-29T04:38:47.830Z,16.05
2019-04-29T04:43:55.460Z,17.06
2019-04-29T04:49:03.151Z,18.06
2019-04-29T04:54:10.778Z,18.47
2019-04-29T04:59:18.425Z,18.61
2019-04-29T05:04:26.004Z,19.01
2019-04-29T05:09:33.703Z,19.89
2019-04-29T05:14:41.294Z,22.09
2019-04-29T05:19:49.065Z,24.67
2019-04-29T05:24:56.651Z,22.72
2019-04-29T05:30:04.297Z,20.77
2019-04-29T05:35:11.894Z,21.39
2019-04-29T05:40:19.561Z,18.78
2019-04-29T05:45:27.169Z,19.00
2019-04-29T05:50:34.798Z,18.64
2019-04-29T05:55:42.439Z,18.46
2019-04-29T06:00:50.080Z,18.65
2019-04-29T06:05:57.672Z,19.72
2019-04-29T06:11:05.297Z,17.17
2019-04-29T06:16:15.985Z,19.02
2019-04-29T06:21:20.079Z,18.45
2019-04-29T06:26:27.685Z,16.12
2019-04-29T06:31:35.337Z,16.07
2019-04-29T06:36:42.953Z,18.20
2019-04-29T06:41:50.781Z,15.71
2019-04-29T06:46:58.397Z,15.91
2019-04-29T06:52:06.095Z,15.27
2019-04-29T06:57:13.709Z,15.55
2019-04-29T07:02:21.361Z,15.00
2019-04-29T07:07:28.970Z,15.32
2019-04-29T07:12:36.824Z,14.32
2019-04-29T07:17:44.437Z,14.06
2019-04-29T07:22:52.070Z,15.28
2019-04-29T07:27:59.669Z,13.20
2019-04-29T07:33:07.334Z,13.78
2019-04-29T07:38:14.936Z,12.53
2019-04-29T07:43:22.675Z,11.68
2019-04-29T07:48:30.284Z,11.87
2019-04-29T07:53:45.315Z,12.99
2019-04-29T07:58:45.041Z,11.80
2019-04-29T08:03:52.818Z,11.67
2019-04-29T08:09:07.388Z,12.38
2019-04-29T08:14:07.731Z,13.37
2019-04-29T08:19:15.355Z,11.84
2019-04-29T08:24:22.984Z,10.99
2019-04-29T08:29:30.804Z,10.76
2019-04-29T08:34:40.748Z,10.25
2019-04-29T08:39:44.981Z,11.01
2019-04-29T08:44:54.776Z,12.68
2019-04-29T08:49:59.765Z,13.62
2019-04-29T08:55:07.380Z,13.35
2019-04-29T09:00:14.980Z,12.94
2019-04-29T09:05:22.647Z,11.26
2019-04-29T09:10:33.115Z,10.77
2019-04-29T09:15:37.438Z,11.27
2019-04-29T09:20:45.044Z,11.03
2019-04-29T09:26:02.489Z,11.27
2019-04-29T09:30:59.891Z,9.76
2019-04-29T09:36:09.725Z,10.48
2019-04-29T09:41:14.682Z,10.71
2019-04-29T09:46:22.370Z,10.96
2019-04-29T09:51:29.959Z,10.93
2019-04-29T09:56:37.579Z,11.33
2019-04-29T10:01:45.181Z,12.80
2019-04-29T10:06:52.839Z,11.35
2019-04-29T10:12:00.429Z,10.69
2019-04-29T10:17:11.212Z,12.46
2019-04-29T10:22:15.190Z,12.44
2019-04-29T10:27:22.947Z,12.70
2019-04-29T10:32:30.518Z,12.56
2019-04-29T10:37:38.200Z,12.44
2019-04-29T10:42:45.814Z,10.73
2019-04-29T10:47:53.549Z,10.38
2019-04-29T10:53:01.091Z,10.84
2019-04-29T10:58:08.845Z,9.52
2019-04-29T11:03:16.533Z,10.35
2019-04-29T11:08:24.202Z,9.90
2019-04-29T11:13:31.788Z,9.94
2019-04-29T11:18:39.418Z,9.76
2019-04-29T11:23:50.605Z,10.08
2019-04-29T11:28:54.837Z,10.48
2019-04-29T11:34:01.241Z,10.06
2019-04-29T11:39:09.208Z,9.19
2019-04-29T11:44:15.990Z,8.59
2019-04-29T11:49:23.674Z,8.27
2019-04-29T11:54:31.264Z,8.96
2019-04-29T11:59:39.037Z,8.16
2019-04-29T12:04:46.634Z,8.57
2019-04-29T12:09:54.261Z,8.62
2019-04-29T12:15:01.855Z,9.15
2019-04-29T12:20:09.497Z,7.17
2019-04-29T12:25:17.082Z,7.74
2019-04-29T12:30:24.771Z,7.53
2019-04-29T12:35:32.387Z,7.50
2019-04-29T12:40:40.087Z,7.09
2019-04-29T12:45:47.678Z,7.90
2019-04-29T12:50:57.533Z,7.63
2019-04-29T12:56:02.480Z,7.21
2019-04-29T13:01:10.159Z,7.62
2019-04-29T13:06:23.538Z,7.48
2019-04-29T13:11:36.027Z,7.86
2019-04-29T13:16:32.104Z,7.90
2019-04-29T13:21:39.864Z,7.50
2019-04-29T13:26:47.372Z,7.51
2019-04-29T13:31:54.982Z,7.68
2019-04-29T13:37:07.767Z,6.89
2019-04-29T13:42:15.360Z,8.10
2019-04-29T13:47:16.887Z,7.53
2019-04-29T13:52:24.525Z,7.27
2019-04-29T13:57:32.125Z,7.24
2019-04-29T14:02:39.770Z,7.31
2019-04-29T14:07:48.641Z,6.18
2019-04-29T14:13:09.381Z,6.21
2019-04-29T14:18:01.674Z,5.35
2019-04-29T14:23:09.356Z,5.57
2019-04-29T14:28:16.968Z,5.51
2019-04-29T14:33:26.123Z,5.69
2019-04-29T14:38:35.780Z,5.07
2019-04-29T14:43:38.985Z,5.43
2019-04-29T14:48:46.604Z,4.91
2019-04-29T14:53:56.743Z,5.02
2019-04-29T14:59:07.178Z,4.75
2019-04-29T15:04:17.959Z,4.91
2019-04-29T15:09:17.706Z,4.78
2019-04-29T15:14:23.805Z,4.51
2019-04-29T15:19:30.004Z,4.37
2019-04-29T15:24:37.690Z,4.41
2019-04-29T15:29:45.287Z,3.96
2019-04-29T15:34:52.984Z,4.26
2019-04-29T15:40:00.731Z,4.23
2019-04-29T15:45:08.284Z,4.36
2019-04-29T15:50:18.463Z,4.42
2019-04-29T15:55:23.054Z,4.51
2019-04-29T16:00:36.656Z,4.77
2019-04-29T16:10:44.928Z,4.79
2019-04-29T16:15:52.586Z,4.84
2019-04-29T16:21:00.181Z,4.85
2019-04-29T16:26:07.895Z,4.77
2019-04-29T16:31:15.488Z,5.07
2019-04-29T16:36:23.088Z,5.26
2019-04-29T16:41:30.693Z,5.45
2019-04-29T16:46:38.356Z,5.78
2019-04-29T16:51:47.975Z,5.73
2019-04-29T16:56:53.173Z,6.14
2019-04-29T17:02:00.771Z,6.13
2019-04-29T17:07:13.205Z,5.67
2019-04-29T17:12:15.639Z,5.85
2019-04-29T17:17:28.906Z,6.62
2019-04-29T17:22:35.523Z,6.24
2019-04-29T17:27:42.334Z,6.62
2019-04-29T17:32:47.851Z,7.00
2019-04-29T17:35:13.889Z,4.81
2019-04-29T17:37:52.032Z,6.94
2019-04-29T17:43:00.834Z,7.76
2019-04-29T17:48:06.973Z,7.09
2019-04-29T17:53:15.264Z,7.16
2019-04-29T17:58:22.001Z,7.82
2019-04-29T18:03:29.959Z,8.46
2019-04-29T18:08:37.980Z,8.44
2019-04-29T18:13:45.997Z,8.36
2019-04-29T18:18:57.908Z,9.21
2019-04-29T18:24:01.323Z,9.56
2019-04-29T18:29:09.244Z,10.54
2019-04-29T18:34:17.154Z,9.65
2019-04-29T18:39:28.539Z,9.99
2019-04-29T18:44:32.689Z,9.96
2019-04-29T18:49:40.715Z,10.73
2019-04-29T18:54:48.722Z,10.62
2019-04-29T18:59:56.745Z,9.52
2019-04-29T19:05:04.666Z,9.26
2019-04-29T19:10:14.232Z,9.02
2019-04-29T19:15:20.206Z,9.33
2019-04-29T19:20:28.105Z,9.95
2019-04-29T19:25:36.138Z,11.84
2019-04-29T19:30:45.135Z,10.31
2019-04-29T19:35:51.657Z,10.31
2019-04-29T19:40:59.643Z,10.31
2019-04-29T19:46:07.457Z,10.73
2019-04-29T19:51:18.278Z,9.37
2019-04-29T19:56:24.434Z,11.23
2019-04-29T20:01:31.913Z,10.16
2019-04-29T20:06:37.835Z,10.57
2019-04-29T20:11:45.839Z,12.00
2019-04-29T20:16:57.555Z,10.57
2019-04-29T20:23:27.471Z,11.16
2019-04-29T20:27:06.729Z,11.01
2019-04-29T20:32:16.233Z,11.51
2019-04-29T20:37:21.654Z,10.96
2019-04-29T20:42:29.312Z,9.15
2019-04-29T20:47:40.495Z,9.84
2019-04-29T20:52:44.628Z,9.62
2019-04-29T20:57:52.626Z,9.94
2019-04-29T21:02:59.277Z,10.05
2019-04-29T21:08:14.319Z,10.33
2019-04-29T21:13:16.413Z,10.32
2019-04-29T21:18:21.706Z,11.16
2019-04-29T21:23:31.536Z,10.91
2019-04-29T21:28:41.099Z,11.02
2019-04-29T21:33:45.487Z,11.03
2019-04-29T21:38:55.738Z,11.19
2019-04-29T21:43:58.038Z,11.57
2019-04-29T21:49:11.500Z,11.94
2019-04-29T21:54:14.216Z,15.05
2019-04-29T21:59:19.959Z,14.39
2019-04-29T22:04:27.649Z,15.01
2019-04-29T22:09:36.363Z,13.09
2019-04-29T22:14:45.073Z,12.35
2019-04-29T22:19:49.523Z,12.21
2019-04-29T22:25:04.660Z,13.29
2019-04-29T22:30:05.770Z,13.06
2019-04-29T22:35:11.637Z,13.68
2019-04-29T22:40:19.222Z,14.67
2019-04-29T22:45:29.491Z,16.15
2019-04-29T22:50:37.998Z,15.60
2019-04-29T22:55:41.172Z,15.30
2019-04-29T23:00:48.776Z,17.56
2019-04-29T23:06:00.032Z,15.75
2019-04-29T23:11:04.237Z,15.68
2019-04-29T23:16:10.765Z,15.47
2019-04-29T23:21:18.369Z,15.93
2019-04-29T23:26:26.041Z,16.38
2019-04-29T23:31:35.131Z,15.88
2019-04-29T23:36:44.619Z,17.64
2019-04-29T23:41:47.923Z,16.25
2019-04-29T23:46:55.565Z,16.42
2019-04-29T23:52:06.867Z,16.15
2019-04-29T23:57:10.336Z,16.80
